createdAt,value
2023-02-17T00:00:55.917Z,31.52
2023-02-17T00:03:22.904Z,27.30
2023-02-17T00:05:51.069Z,28.27
2023-02-17T00:08:18.216Z,28.20
2023-02-17T00:10:45.440Z,31.30
2023-02-17T00:13:12.375Z,28.13
2023-02-17T00:15:39.904Z,27.77
2023-02-17T00:18:06.932Z,33.85
2023-02-17T00:20:33.682Z,29.08
2023-02-17T00:23:00.480Z,28.08
2023-02-17T00:25:27.365Z,31.75
2023-02-17T00:27:54.512Z,30.53
2023-02-17T00:30:21.435Z,30.50
2023-02-17T00:32:49.164Z,29.45
2023-02-17T00:35:16.087Z,33.08
2023-02-17T00:37:45.544Z,33.67
2023-02-17T00:40:13.756Z,32.38
2023-02-17T00:42:41.253Z,30.00
2023-02-17T00:45:08.717Z,33.40
2023-02-17T00:47:35.654Z,30.08
2023-02-17T00:50:02.501Z,32.88
2023-02-17T00:52:29.443Z,31.33
2023-02-17T00:54:56.227Z,31.17
2023-02-17T00:57:23.143Z,34.00
2023-02-17T00:59:50.329Z,33.72
2023-02-17T01:02:17.376Z,37.88
2023-02-17T01:04:44.225Z,32.22
2023-02-17T01:07:14.142Z,31.17
2023-02-17T01:09:40.949Z,31.27
2023-02-17T01:12:07.800Z,37.15
2023-02-17T01:14:34.658Z,36.05
2023-02-17T01:17:01.559Z,35.50
2023-02-17T01:19:29.057Z,36.45
2023-02-17T01:21:56.012Z,38.17
2023-02-17T01:24:22.903Z,37.30
2023-02-17T01:26:49.753Z,36.47
2023-02-17T01:29:16.744Z,35.95
2023-02-17T01:31:44.215Z,38.20
2023-02-17T01:34:12.164Z,37.60
2023-02-17T01:36:39.073Z,37.78
2023-02-17T01:39:06.068Z,38.20
2023-02-17T01:41:32.921Z,36.00
2023-02-17T01:44:07.690Z,37.90
2023-02-17T01:46:38.736Z,40.95
2023-02-17T01:49:30.638Z,37.92
2023-02-17T01:52:10.620Z,41.00
2023-02-17T01:54:59.746Z,38.40
2023-02-17T01:57:31.706Z,34.83
2023-02-17T01:59:59.148Z,35.05
2023-02-17T02:02:29.083Z,32.95
2023-02-17T02:04:56.344Z,37.38
2023-02-17T02:07:31.179Z,34.35
2023-02-17T02:09:59.168Z,34.17
2023-02-17T02:12:31.991Z,33.25
2023-02-17T02:15:06.777Z,33.25
2023-02-17T02:17:45.695Z,34.38
2023-02-17T02:20:22.780Z,28.08
2023-02-17T02:22:58.231Z,32.85
2023-02-17T02:26:04.839Z,35.55
2023-02-17T02:28:47.958Z,33.22
2023-02-17T02:31:18.147Z,33.28
2023-02-17T02:33:49.893Z,36.45
2023-02-17T02:36:39.052Z,32.95
2023-02-17T02:39:20.085Z,31.30
2023-02-17T02:41:48.363Z,33.63
2023-02-17T02:44:19.549Z,32.42
2023-02-17T02:46:56.453Z,35.20
2023-02-17T02:49:24.037Z,33.60
2023-02-17T02:52:09.800Z,31.83
2023-02-17T02:54:45.851Z,37.13
2023-02-17T02:57:30.806Z,32.13
2023-02-17T03:00:10.457Z,34.45
2023-02-17T03:02:45.965Z,38.00
2023-02-17T03:05:46.587Z,40.20
2023-02-17T03:08:28.857Z,41.45
2023-02-17T03:10:58.012Z,36.17
2023-02-17T03:13:25.004Z,36.50
2023-02-17T03:15:52.359Z,36.60
2023-02-17T03:18:19.412Z,37.60
2023-02-17T03:20:54.435Z,35.78
2023-02-17T03:23:21.280Z,34.90
2023-02-17T03:25:49.259Z,33.92
2023-02-17T03:28:16.367Z,36.05
2023-02-17T03:30:43.582Z,37.30
2023-02-17T03:33:10.509Z,32.88
2023-02-17T03:35:37.419Z,36.30
2023-02-17T03:38:04.467Z,35.03
2023-02-17T03:40:31.724Z,38.28
2023-02-17T03:42:58.633Z,33.83
2023-02-17T03:45:25.639Z,43.10
2023-02-17T03:47:52.561Z,35.38
2023-02-17T03:50:19.413Z,37.13
2023-02-17T03:52:46.488Z,36.92
2023-02-17T03:55:13.818Z,34.92
2023-02-17T03:57:40.825Z,35.28
2023-02-17T04:00:09.387Z,33.35
2023-02-17T04:02:44.089Z,31.58
2023-02-17T04:05:11.120Z,30.75
2023-02-17T04:07:37.919Z,29.98
2023-02-17T04:10:09.512Z,30.63
2023-02-17T04:12:37.187Z,30.60
2023-02-17T04:15:04.232Z,27.40
2023-02-17T04:17:31.168Z,29.60
2023-02-17T04:19:58.240Z,28.15
2023-02-17T04:22:25.162Z,26.48
2023-02-17T04:24:52.103Z,28.77
2023-02-17T04:27:18.901Z,26.10
2023-02-17T04:29:45.696Z,31.73
2023-02-17T04:32:12.515Z,30.50
2023-02-17T04:34:39.393Z,32.87
2023-02-17T04:37:07.093Z,31.42
2023-02-17T04:39:34.133Z,29.43
2023-02-17T04:42:01.101Z,28.92
2023-02-17T04:44:27.966Z,34.33
2023-02-17T04:46:54.987Z,32.07
2023-02-17T04:49:21.908Z,30.88
2023-02-17T04:51:48.800Z,33.25
2023-02-17T04:54:15.575Z,35.22
2023-02-17T04:56:44.249Z,37.13
2023-02-17T04:59:11.108Z,34.60
2023-02-17T05:01:38.003Z,32.35
2023-02-17T05:04:05.084Z,37.47
2023-02-17T05:06:31.919Z,35.75
2023-02-17T05:08:58.753Z,41.67
2023-02-17T05:11:25.764Z,39.30
2023-02-17T05:13:52.515Z,36.28
2023-02-17T05:16:19.456Z,43.88
2023-02-17T05:18:46.238Z,38.75
2023-02-17T05:21:13.198Z,38.25
2023-02-17T05:23:41.333Z,39.50
2023-02-17T05:26:11.325Z,41.63
2023-02-17T05:28:38.651Z,37.17
2023-02-17T05:31:06.774Z,39.38
2023-02-17T05:33:33.746Z,37.03
2023-02-17T05:36:08.995Z,41.10
2023-02-17T05:38:37.044Z,41.75
2023-02-17T05:41:04.591Z,41.55
2023-02-17T05:43:31.801Z,40.17
2023-02-17T05:46:06.138Z,44.15
2023-02-17T05:48:33.578Z,41.75
2023-02-17T05:51:00.814Z,43.47
2023-02-17T05:53:27.640Z,49.88
2023-02-17T05:55:54.452Z,47.03
2023-02-17T05:58:21.770Z,48.58
2023-02-17T06:00:48.821Z,50.13
2023-02-17T06:03:16.198Z,44.78
2023-02-17T06:05:44.691Z,43.65
2023-02-17T06:08:11.825Z,45.78
2023-02-17T06:10:38.722Z,48.35
2023-02-17T06:13:05.517Z,45.05
2023-02-17T06:15:32.298Z,43.17
2023-02-17T06:17:59.060Z,40.20
2023-02-17T06:20:26.110Z,37.10
2023-02-17T06:22:53.008Z,39.78
2023-02-17T06:25:19.870Z,36.53
2023-02-17T06:27:46.657Z,36.60
2023-02-17T06:30:14.981Z,42.40
2023-02-17T06:32:42.086Z,40.33
2023-02-17T06:35:09.072Z,37.97
2023-02-17T06:37:35.904Z,35.20
2023-02-17T06:40:02.736Z,38.83
2023-02-17T06:42:29.619Z,36.45
2023-02-17T06:44:56.716Z,33.35
2023-02-17T06:47:23.620Z,33.50
2023-02-17T06:49:50.460Z,32.53
2023-02-17T06:52:17.337Z,26.60
2023-02-17T06:54:44.181Z,28.45
2023-02-17T06:57:10.935Z,30.83
2023-02-17T06:59:37.695Z,27.50
2023-02-17T07:02:05.984Z,25.33
2023-02-17T07:04:32.924Z,28.15
2023-02-17T07:06:59.830Z,25.52
2023-02-17T07:09:26.878Z,27.58
2023-02-17T07:11:53.781Z,26.95
2023-02-17T07:14:20.708Z,24.60
2023-02-17T07:16:47.568Z,28.55
2023-02-17T07:19:14.486Z,24.87
2023-02-17T07:21:41.396Z,23.63
2023-02-17T07:24:08.612Z,23.27
2023-02-17T07:26:37.262Z,24.20
2023-02-17T07:29:04.749Z,24.75
2023-02-17T07:31:32.548Z,23.30
2023-02-17T07:34:00.343Z,23.63
2023-02-17T07:36:27.226Z,22.65
2023-02-17T07:38:54.476Z,24.65
2023-02-17T07:41:24.728Z,23.43
2023-02-17T07:43:55.222Z,18.80
2023-02-17T07:46:23.108Z,23.85
2023-02-17T07:48:51.918Z,20.98
2023-02-17T07:51:21.766Z,23.45
2023-02-17T07:53:50.006Z,18.73
2023-02-17T07:56:19.311Z,20.52
2023-02-17T07:58:46.260Z,19.02
2023-02-17T08:01:16.482Z,19.55
2023-02-17T08:03:43.838Z,20.73
2023-02-17T08:06:20.204Z,16.40
2023-02-17T08:09:08.111Z,19.23
2023-02-17T08:11:53.478Z,17.30
2023-02-17T08:14:22.600Z,16.15
2023-02-17T08:16:49.732Z,18.88
2023-02-17T08:19:16.982Z,16.03
2023-02-17T08:21:43.942Z,16.37
2023-02-17T08:24:10.866Z,15.48
2023-02-17T08:26:37.853Z,16.35
2023-02-17T08:29:04.734Z,13.82
2023-02-17T08:31:34.805Z,14.98
2023-02-17T08:34:04.625Z,14.65
2023-02-17T08:36:31.681Z,12.75
2023-02-17T08:38:59.209Z,11.82
2023-02-17T08:41:32.191Z,15.85
2023-02-17T08:44:00.981Z,12.95
2023-02-17T08:46:29.004Z,13.77
2023-02-17T08:48:56.518Z,14.05
2023-02-17T08:51:26.291Z,12.10
2023-02-17T08:53:55.868Z,10.73
2023-02-17T08:56:24.548Z,11.52
2023-02-17T08:58:52.235Z,10.05
2023-02-17T09:01:20.043Z,11.88
2023-02-17T09:03:48.686Z,8.82
2023-02-17T09:06:15.863Z,11.07
2023-02-17T09:08:44.227Z,11.20
2023-02-17T09:11:11.194Z,10.80
2023-02-17T09:13:38.451Z,11.93
2023-02-17T09:16:05.909Z,11.43
2023-02-17T09:18:33.138Z,8.20
2023-02-17T09:21:01.054Z,10.00
2023-02-17T09:23:28.086Z,8.55
2023-02-17T09:26:10.253Z,7.50
2023-02-17T09:28:38.046Z,8.63
2023-02-17T09:31:25.862Z,9.32
2023-02-17T09:33:53.290Z,7.90
2023-02-17T09:36:23.061Z,9.20
2023-02-17T09:38:50.480Z,11.23
2023-02-17T09:41:31.912Z,10.55
2023-02-17T09:43:59.688Z,10.90
2023-02-17T09:46:35.548Z,9.65
2023-02-17T09:49:13.672Z,10.35
2023-02-17T09:51:51.640Z,9.63
2023-02-17T09:54:31.105Z,8.10
2023-02-17T09:57:01.439Z,9.73
2023-02-17T09:59:45.335Z,8.40
2023-02-17T10:02:27.568Z,10.27
2023-02-17T10:04:57.677Z,10.55
2023-02-17T10:07:33.737Z,11.07
2023-02-17T10:10:14.586Z,10.25
2023-02-17T10:12:46.608Z,9.30
2023-02-17T10:15:21.496Z,12.73
2023-02-17T10:18:12.969Z,9.40
2023-02-17T10:20:50.797Z,9.37
2023-02-17T10:23:22.426Z,9.68
2023-02-17T10:25:52.127Z,10.65
2023-02-17T10:28:52.784Z,10.68
2023-02-17T10:31:44.789Z,8.93
2023-02-17T10:34:30.313Z,14.15
2023-02-17T10:36:59.752Z,17.67
2023-02-17T10:39:44.681Z,11.10
2023-02-17T10:42:37.507Z,9.85
2023-02-17T10:45:15.564Z,11.32
2023-02-17T10:47:42.844Z,11.43
2023-02-17T10:50:19.908Z,11.02
2023-02-17T10:52:47.576Z,10.48
2023-02-17T10:55:29.840Z,10.03
2023-02-17T10:58:07.052Z,7.83
2023-02-17T11:00:33.972Z,11.47
2023-02-17T11:03:00.913Z,9.98
2023-02-17T11:05:34.269Z,10.20
2023-02-17T11:08:28.548Z,11.02
2023-02-17T11:11:02.122Z,12.15
2023-02-17T11:13:43.840Z,9.15
2023-02-17T11:16:41.523Z,12.15
2023-02-17T11:19:34.455Z,12.85
2023-02-17T11:22:04.034Z,12.52
2023-02-17T11:24:33.347Z,11.13
2023-02-17T11:27:03.856Z,13.38
2023-02-17T11:29:31.209Z,13.73
2023-02-17T11:32:07.194Z,16.35
2023-02-17T11:34:36.931Z,13.30
2023-02-17T11:37:21.420Z,13.77
2023-02-17T11:39:51.123Z,11.43
2023-02-17T11:42:30.171Z,13.57
2023-02-17T11:44:59.716Z,13.23
2023-02-17T11:48:09.617Z,11.10
2023-02-17T11:50:55.895Z,14.90
2023-02-17T11:53:47.296Z,9.27
2023-02-17T11:56:17.818Z,14.95
2023-02-17T11:59:07.419Z,12.43
2023-02-17T12:02:01.831Z,13.45
2023-02-17T12:04:32.655Z,13.77
2023-02-17T12:07:11.732Z,14.05
2023-02-17T12:09:52.803Z,12.93
2023-02-17T12:12:22.644Z,18.30
2023-02-17T12:15:29.153Z,13.23
2023-02-17T12:18:05.022Z,13.07
2023-02-17T12:20:45.681Z,12.00
2023-02-17T12:23:31.345Z,11.32
2023-02-17T12:26:10.080Z,13.07
2023-02-17T12:29:02.880Z,10.95
2023-02-17T12:32:00.709Z,16.63
2023-02-17T12:34:49.822Z,12.10
2023-02-17T12:37:24.187Z,12.45
2023-02-17T12:39:59.063Z,15.32
2023-02-17T12:42:35.234Z,12.60
2023-02-17T12:45:13.255Z,13.25
2023-02-17T12:48:14.582Z,13.20
2023-02-17T12:51:00.115Z,11.40
2023-02-17T12:53:57.334Z,14.20
2023-02-17T12:56:31.257Z,16.20
2023-02-17T12:59:20.878Z,12.77
2023-02-17T13:02:20.818Z,14.50
2023-02-17T13:04:54.531Z,12.40
2023-02-17T13:07:21.465Z,14.25
2023-02-17T13:09:50.189Z,13.98
2023-02-17T13:12:23.206Z,14.60
2023-02-17T13:14:55.056Z,16.52
2023-02-17T13:17:26.752Z,21.52
2023-02-17T13:20:11.448Z,14.00
2023-02-17T13:22:39.710Z,16.00
2023-02-17T13:25:07.384Z,12.27
2023-02-17T13:27:37.080Z,18.67
2023-02-17T13:30:22.021Z,14.38
2023-02-17T13:33:07.947Z,14.23
2023-02-17T13:35:36.949Z,13.68
2023-02-17T13:38:04.500Z,14.25
2023-02-17T13:40:40.700Z,14.95
2023-02-17T13:43:19.235Z,18.33
2023-02-17T13:45:52.777Z,14.67
2023-02-17T13:48:29.961Z,16.60
2023-02-17T13:51:00.643Z,14.57
2023-02-17T13:53:47.657Z,14.40
2023-02-17T13:56:29.330Z,13.30
2023-02-17T13:59:08.260Z,13.48
2023-02-17T14:01:40.710Z,12.00
2023-02-17T14:04:23.307Z,13.02
2023-02-17T14:06:51.068Z,14.10
2023-02-17T14:09:27.987Z,12.93
2023-02-17T14:11:55.877Z,19.20
2023-02-17T14:14:28.465Z,14.77
2023-02-17T14:17:07.515Z,21.05
2023-02-17T14:19:45.728Z,18.17
2023-02-17T14:22:26.401Z,18.85
2023-02-17T14:25:06.642Z,15.85
2023-02-17T14:27:42.718Z,18.38
2023-02-17T14:30:27.300Z,16.88
2023-02-17T14:33:18.462Z,17.83
2023-02-17T14:36:04.450Z,14.93
2023-02-17T14:38:42.117Z,16.45
2023-02-17T14:41:09.833Z,16.53
2023-02-17T14:43:36.976Z,20.55
2023-02-17T14:46:03.899Z,17.10
2023-02-17T14:48:30.780Z,17.20
2023-02-17T14:50:57.949Z,19.38
2023-02-17T14:53:33.446Z,21.83
2023-02-17T14:56:23.414Z,20.13
2023-02-17T14:58:50.601Z,14.30
2023-02-17T15:01:19.836Z,20.67
2023-02-17T15:03:46.876Z,21.40
2023-02-17T15:06:28.815Z,15.68
2023-02-17T15:08:56.935Z,18.13
2023-02-17T15:11:37.440Z,18.97
2023-02-17T15:14:05.242Z,20.27
2023-02-17T15:16:32.105Z,18.95
2023-02-17T15:18:58.988Z,18.48
2023-02-17T15:21:35.133Z,15.68
2023-02-17T15:24:03.341Z,23.98
2023-02-17T15:26:30.913Z,21.70
2023-02-17T15:28:59.265Z,19.55
2023-02-17T15:31:29.915Z,18.10
2023-02-17T15:33:59.586Z,18.77
2023-02-17T15:36:28.092Z,22.27
2023-02-17T15:38:55.055Z,18.55
2023-02-17T15:41:25.807Z,12.55
2023-02-17T15:43:53.466Z,20.77
2023-02-17T15:46:22.715Z,22.00
2023-02-17T15:48:49.968Z,21.35
2023-02-17T15:51:21.339Z,20.33
2023-02-17T15:53:49.061Z,16.10
2023-02-17T15:56:29.482Z,20.52
2023-02-17T15:58:57.956Z,23.00
2023-02-17T16:01:33.593Z,18.23
2023-02-17T16:04:00.683Z,19.40
2023-02-17T16:06:28.482Z,24.10
2023-02-17T16:08:58.629Z,21.45
2023-02-17T16:11:27.107Z,18.83
2023-02-17T16:13:55.534Z,20.67
2023-02-17T16:16:29.545Z,27.15
2023-02-17T16:18:56.855Z,22.00
2023-02-17T16:21:23.845Z,20.40
2023-02-17T16:23:52.584Z,23.50
2023-02-17T16:26:34.716Z,18.92
2023-02-17T16:29:16.048Z,19.85
2023-02-17T16:31:43.238Z,23.05
2023-02-17T16:34:21.885Z,17.60
2023-02-17T16:36:50.219Z,18.95
2023-02-17T16:39:20.311Z,19.65
2023-02-17T16:41:48.248Z,20.35
2023-02-17T16:44:17.610Z,16.60
2023-02-17T16:46:48.546Z,15.25
2023-02-17T16:49:32.613Z,20.67
2023-02-17T16:52:05.227Z,19.30
2023-02-17T16:54:35.164Z,21.85
2023-02-17T16:57:02.638Z,21.65
2023-02-17T16:59:29.931Z,19.30
2023-02-17T17:01:56.821Z,24.80
2023-02-17T17:04:24.654Z,19.50
2023-02-17T17:06:52.457Z,20.20
2023-02-17T17:09:22.363Z,20.80
2023-02-17T17:11:49.943Z,16.25
2023-02-17T17:14:17.261Z,23.27
2023-02-17T17:16:51.270Z,23.13
2023-02-17T17:19:18.451Z,19.40
2023-02-17T17:21:45.333Z,18.83
2023-02-17T17:24:12.293Z,20.30
2023-02-17T17:26:47.516Z,23.35
2023-02-17T17:29:16.685Z,20.77
2023-02-17T17:31:43.874Z,17.67
2023-02-17T17:34:10.921Z,18.10
2023-02-17T17:36:44.109Z,22.23
2023-02-17T17:39:19.836Z,21.33
2023-02-17T17:41:47.792Z,22.42
2023-02-17T17:44:14.998Z,17.13
2023-02-17T17:46:42.241Z,18.58
2023-02-17T17:49:10.539Z,21.25
2023-02-17T17:51:38.977Z,26.10
2023-02-17T17:54:07.069Z,22.85
2023-02-17T17:56:42.456Z,24.30
2023-02-17T17:59:10.552Z,20.02
2023-02-17T18:01:37.422Z,24.02
2023-02-17T18:04:04.569Z,22.92
2023-02-17T18:06:41.465Z,19.73
2023-02-17T18:09:25.831Z,22.25
2023-02-17T18:11:59.838Z,24.60
2023-02-17T18:14:26.796Z,18.48
2023-02-17T18:16:53.759Z,18.20
2023-02-17T18:19:20.964Z,18.92
2023-02-17T18:21:48.043Z,20.90
2023-02-17T18:24:15.085Z,15.13
2023-02-17T18:26:41.963Z,21.67
2023-02-17T18:29:09.087Z,20.33
2023-02-17T18:31:35.981Z,18.35
2023-02-17T18:34:03.186Z,24.90
2023-02-17T18:36:30.198Z,25.80
2023-02-17T18:38:58.551Z,21.27
2023-02-17T18:41:30.765Z,21.35
2023-02-17T18:43:59.828Z,28.80
2023-02-17T18:46:27.639Z,29.67
2023-02-17T18:48:56.068Z,27.17
2023-02-17T18:51:24.005Z,26.17
2023-02-17T18:53:51.320Z,37.42
2023-02-17T18:56:24.081Z,24.45
2023-02-17T18:58:52.609Z,31.10
2023-02-17T19:01:22.867Z,26.67
2023-02-17T19:03:50.047Z,27.80
2023-02-17T19:06:19.201Z,26.03
2023-02-17T19:08:47.208Z,29.23
2023-02-17T19:11:16.864Z,34.45
2023-02-17T19:13:43.970Z,36.83
2023-02-17T19:16:16.961Z,29.63
2023-02-17T19:18:45.337Z,35.50
2023-02-17T19:21:13.455Z,35.78
2023-02-17T19:23:40.787Z,34.47
2023-02-17T19:26:09.514Z,35.10
2023-02-17T19:28:38.633Z,28.90
2023-02-17T19:31:07.780Z,33.20
2023-02-17T19:33:34.979Z,35.77
2023-02-17T19:36:10.470Z,34.92
2023-02-17T19:38:37.659Z,34.23
2023-02-17T19:41:06.521Z,37.92
2023-02-17T19:43:34.074Z,37.33
2023-02-17T19:46:00.933Z,32.53
2023-02-17T19:48:28.198Z,32.85
2023-02-17T19:51:00.516Z,39.70
2023-02-17T19:53:28.006Z,30.05
2023-02-17T19:55:54.961Z,37.30
2023-02-17T19:58:22.024Z,34.70
2023-02-17T20:00:48.916Z,37.97
2023-02-17T20:03:15.847Z,30.75
2023-02-17T20:05:42.904Z,41.93
2023-02-17T20:08:09.761Z,37.83
2023-02-17T20:10:39.807Z,35.30
2023-02-17T20:13:06.763Z,37.65
2023-02-17T20:15:33.611Z,33.35
2023-02-17T20:18:00.390Z,36.33
2023-02-17T20:20:27.301Z,37.22
2023-02-17T20:22:54.087Z,36.90
2023-02-17T20:25:21.036Z,38.05
2023-02-17T20:27:47.972Z,34.38
2023-02-17T20:30:15.085Z,34.08
2023-02-17T20:32:42.013Z,42.45
2023-02-17T20:35:11.573Z,35.40
2023-02-17T20:37:38.408Z,38.80
2023-02-17T20:40:06.253Z,40.22
2023-02-17T20:42:33.156Z,37.72
2023-02-17T20:45:00.555Z,39.83
2023-02-17T20:47:27.585Z,43.92
2023-02-17T20:49:54.495Z,42.50
2023-02-17T20:52:21.366Z,36.00
2023-02-17T20:54:48.684Z,42.00
2023-02-17T20:57:16.017Z,39.13
2023-02-17T20:59:42.971Z,37.50
2023-02-17T21:02:11.190Z,38.38
2023-02-17T21:04:38.247Z,41.33
2023-02-17T21:07:05.179Z,42.55
2023-02-17T21:09:32.340Z,46.93
2023-02-17T21:11:59.198Z,46.28
2023-02-17T21:14:26.220Z,44.92
2023-02-17T21:16:53.130Z,38.13
2023-02-17T21:19:20.058Z,48.10
2023-02-17T21:21:47.060Z,41.47
2023-02-17T21:24:14.273Z,45.07
2023-02-17T21:26:41.463Z,47.40
2023-02-17T21:29:08.864Z,50.38
2023-02-17T21:31:37.059Z,48.78
2023-02-17T21:34:04.364Z,51.70
2023-02-17T21:36:31.655Z,49.75
2023-02-17T21:38:59.179Z,48.58
2023-02-17T21:41:27.805Z,50.83
2023-02-17T21:44:13.629Z,50.40
2023-02-17T21:46:43.038Z,48.67
2023-02-17T21:49:11.299Z,47.13
2023-02-17T21:51:39.643Z,54.47
2023-02-17T21:54:07.239Z,55.08
2023-02-17T21:56:34.370Z,52.75
2023-02-17T21:59:01.301Z,50.10
2023-02-17T22:01:28.820Z,62.88
2023-02-17T22:03:57.598Z,53.60
2023-02-17T22:06:30.431Z,54.83
2023-02-17T22:08:59.006Z,56.88
2023-02-17T22:11:28.721Z,56.90
2023-02-17T22:13:57.704Z,53.13
2023-02-17T22:16:25.485Z,53.13
2023-02-17T22:18:52.943Z,47.28
2023-02-17T22:21:19.797Z,55.88
2023-02-17T22:23:47.088Z,52.35
2023-02-17T22:26:20.012Z,56.83
2023-02-17T22:28:50.084Z,52.40
2023-02-17T22:31:20.557Z,57.10
2023-02-17T22:33:48.070Z,44.90
2023-02-17T22:36:21.111Z,48.85
2023-02-17T22:38:48.453Z,41.90
2023-02-17T22:41:18.393Z,51.22
2023-02-17T22:43:46.747Z,51.20
2023-02-17T22:46:16.281Z,50.58
2023-02-17T22:48:44.951Z,47.75
2023-02-17T22:51:18.711Z,44.70
2023-02-17T22:53:46.117Z,60.92
2023-02-17T22:56:13.030Z,53.17
2023-02-17T22:58:40.367Z,58.97
2023-02-17T23:01:08.867Z,52.45
2023-02-17T23:03:36.562Z,53.30
2023-02-17T23:06:07.485Z,59.00
2023-02-17T23:08:34.919Z,58.47
2023-02-17T23:11:06.065Z,60.92
2023-02-17T23:13:34.049Z,54.38
2023-02-17T23:16:01.248Z,58.80
2023-02-17T23:18:31.120Z,56.35
2023-02-17T23:20:58.792Z,62.35
2023-02-17T23:23:25.774Z,62.73
2023-02-17T23:25:55.909Z,59.22
2023-02-17T23:28:25.277Z,67.63
2023-02-17T23:30:52.861Z,70.03
2023-02-17T23:33:22.707Z,75.57
2023-02-17T23:35:50.035Z,71.05
2023-02-17T23:38:20.474Z,75.47
2023-02-17T23:40:51.884Z,84.30
2023-02-17T23:43:19.876Z,76.97
2023-02-17T23:45:46.917Z,84.30
2023-02-17T23:48:14.567Z,86.40
2023-02-17T23:50:42.040Z,86.35
2023-02-17T23:53:09.208Z,88.80
2023-02-17T23:55:36.078Z,99.00
2023-02-17T23:58:03.155Z,99.30
